Time;durP1;ratioP1;P1;durP2;ratioP2;P2;SDS_P1;SDS_P2;PMS_P1;PMS_P2;Temp;Humidity;BMP_temperature;BMP_pressure;BME280_temperature;BME280_humidity;BME280_pressure;Samples;Min_cycle;Max_cycle;Signal;HPM_P1;HPM_P2
2022/09/25 00:01:22;;;;;;;63.97;37.72;;;;;;;;;;5032291;28;20068;-70
2022/09/25 00:03:48;;;;;;;70.55;39.17;;;;;;;;;;5032908;28;20033;-71
2022/09/25 00:06:16;;;;;;;66.95;36.88;;;;;;;;;;5032462;28;20455;-71
2022/09/25 00:08:41;;;;;;;66.43;36.90;;;;;;;;;;5033358;28;20060;-73
2022/09/25 00:11:12;;;;;;;66.63;36.25;;;;;;;;;;5033419;28;20022;-71
2022/09/25 00:13:39;;;;;;;63.22;36.70;;;;;;;;;;5032709;28;20022;-70
2022/09/25 00:16:05;;;;;;;66.65;36.35;;;;;;;;;;5033346;28;20029;-73
2022/09/25 00:21:16;;;;;;;67.05;37.45;;;;;;;;;;5033471;28;20457;-71
2022/09/25 00:23:43;;;;;;;71.18;38.38;;;;;;;;;;5015305;28;20039;-71
2022/09/25 00:26:10;;;;;;;66.80;37.58;;;;;;;;;;5032155;28;20389;-71
2022/09/25 00:28:36;;;;;;;64.97;36.30;;;;;;;;;;5032178;28;20107;-70
2022/09/25 00:31:03;;;;;;;62.88;34.47;;;;;;;;;;5032418;28;20084;-70
2022/09/25 00:33:29;;;;;;;69.22;36.55;;;;;;;;;;5032300;28;20022;-70
2022/09/25 00:35:55;;;;;;;65.88;35.72;;;;;;;;;;5033476;28;20029;-71
2022/09/25 00:38:21;;;;;;;71.07;38.05;;;;;;;;;;5033302;28;20148;-71
2022/09/25 00:40:47;;;;;;;61.58;35.53;;;;;;;;;;5031550;28;20048;-70
2022/09/25 00:43:33;;;;;;;69.70;37.08;;;;;;;;;;5031854;28;20026;-70
2022/09/25 00:46:01;;;;;;;69.55;36.47;;;;;;;;;;5034282;28;20026;-71
2022/09/25 00:48:27;;;;;;;73.97;37.60;;;;;;;;;;5036997;28;20535;-69
2022/09/25 00:50:56;;;;;;;72.55;36.80;;;;;;;;;;5035179;28;20486;-70
2022/09/25 00:53:25;;;;;;;79.07;36.10;;;;;;;;;;5035247;28;20036;-71
2022/09/25 00:55:51;;;;;;;69.38;36.30;;;;;;;;;;5034918;28;20075;-70
2022/09/25 00:58:20;;;;;;;69.97;37.58;;;;;;;;;;5034983;28;20083;-69
2022/09/25 01:00:46;;;;;;;66.88;35.08;;;;;;;;;;5035225;28;20485;-70
2022/09/25 01:03:12;;;;;;;69.50;34.25;;;;;;;;;;5035516;28;20030;-71
2022/09/25 01:05:40;;;;;;;75.78;38.30;;;;;;;;;;5034840;28;20029;-69
2022/09/25 01:08:08;;;;;;;72.13;36.75;;;;;;;;;;5034802;28;20034;-71
2022/09/25 01:10:35;;;;;;;76.60;36.92;;;;;;;;;;5035103;28;20030;-70
2022/09/25 01:13:01;;;;;;;73.18;37.25;;;;;;;;;;5034854;28;20030;-71
2022/09/25 01:15:37;;;;;;;69.72;35.67;;;;;;;;;;5034193;28;20049;-70
2022/09/25 01:18:19;;;;;;;83.43;39.08;;;;;;;;;;5038811;28;20029;-70
2022/09/25 01:20:48;;;;;;;71.53;37.58;;;;;;;;;;5045732;28;20481;-70
2022/09/25 01:23:42;;;;;;;71.38;37.05;;;;;;;;;;5040631;28;20033;-71
2022/09/25 01:26:23;;;;;;;72.38;36.72;;;;;;;;;;5035458;28;20499;-70
2022/09/25 01:29:07;;;;;;;85.05;41.80;;;;;;;;;;5035656;28;20029;-71
2022/09/25 01:31:52;;;;;;;79.78;38.67;;;;;;;;;;5017706;28;20442;-70
2022/09/25 01:34:19;;;;;;;80.13;37.38;;;;;;;;;;5035702;28;20025;-72
2022/09/25 01:36:50;;;;;;;82.53;38.38;;;;;;;;;;5036068;28;20056;-71
2022/09/25 01:39:20;;;;;;;77.78;37.30;;;;;;;;;;5041632;28;20056;-70
2022/09/25 01:41:50;;;;;;;73.72;38.65;;;;;;;;;;5050177;28;20033;-71
2022/09/25 01:44:30;;;;;;;79.22;38.47;;;;;;;;;;5050895;28;20032;-70
2022/09/25 01:47:02;;;;;;;89.63;41.00;;;;;;;;;;5051295;28;20040;-70
2022/09/25 01:49:30;;;;;;;88.75;41.58;;;;;;;;;;5050268;28;20064;-71
2022/09/25 01:51:57;;;;;;;83.63;40.63;;;;;;;;;;5049923;28;20030;-71
2022/09/25 01:54:23;;;;;;;80.95;39.63;;;;;;;;;;5030824;28;20049;-73
2022/09/25 01:57:08;;;;;;;81.82;38.70;;;;;;;;;;5044130;28;20056;-70
2022/09/25 01:59:44;;;;;;;79.10;37.47;;;;;;;;;;5045090;28;20482;-71
2022/09/25 02:02:15;;;;;;;83.43;39.42;;;;;;;;;;5035676;28;20025;-72
2022/09/25 02:04:54;;;;;;;82.13;39.72;;;;;;;;;;5034781;28;20100;-70
2022/09/25 02:07:24;;;;;;;83.32;40.63;;;;;;;;;;5034059;28;20112;-70
2022/09/25 02:09:54;;;;;;;87.78;41.80;;;;;;;;;;5034684;28;20029;-70
2022/09/25 02:12:26;;;;;;;80.70;40.13;;;;;;;;;;5034194;28;20414;-70
2022/09/25 02:14:54;;;;;;;84.25;41.33;;;;;;;;;;5034151;28;20079;-71
2022/09/25 02:20:32;;;;;;;74.93;37.38;;;;;;;;;;5034575;28;20440;-72
2022/09/25 02:23:06;;;;;;;82.32;42.13;;;;;;;;;;5034195;28;20509;-71
2022/09/25 02:25:36;;;;;;;84.82;43.40;;;;;;;;;;5033891;28;20029;-70
2022/09/25 02:28:02;;;;;;;80.20;40.20;;;;;;;;;;5033879;28;20034;-70
2022/09/25 02:30:28;;;;;;;82.25;42.08;;;;;;;;;;5033875;28;20021;-71
2022/09/25 02:32:56;;;;;;;82.55;42.72;;;;;;;;;;5033801;28;20021;-71
2022/09/25 02:35:23;;;;;;;81.40;42.30;;;;;;;;;;5034000;28;20225;-72
2022/09/25 02:37:49;;;;;;;82.80;41.17;;;;;;;;;;5034467;28;20033;-71
2022/09/25 02:40:15;;;;;;;88.68;43.83;;;;;;;;;;5040821;28;20025;-71
2022/09/25 02:42:59;;;;;;;89.38;42.17;;;;;;;;;;5051338;28;20032;-71
2022/09/25 02:45:25;;;;;;;90.47;46.30;;;;;;;;;;5041718;28;20398;-72
2022/09/25 02:47:59;;;;;;;94.35;47.70;;;;;;;;;;5033711;28;20111;-71
2022/09/25 02:50:44;;;;;;;87.03;41.70;;;;;;;;;;5015888;28;20113;-71
2022/09/25 02:53:12;;;;;;;81.53;40.72;;;;;;;;;;5033545;28;20096;-72
2022/09/25 02:55:40;;;;;;;77.18;39.33;;;;;;;;;;5033428;28;20022;-74
2022/09/25 02:58:15;;;;;;;88.35;42.65;;;;;;;;;;5033230;28;20033;-71
2022/09/25 03:00:43;;;;;;;85.00;41.88;;;;;;;;;;5033571;28;20101;-72
2022/09/25 03:03:11;;;;;;;86.10;41.97;;;;;;;;;;5033890;28;20034;-73
2022/09/25 03:05:38;;;;;;;90.30;43.15;;;;;;;;;;5032984;28;20029;-71
2022/09/25 03:10:48;;;;;;;;;;;;;;;;;;5033774;28;20123;-71
2022/09/25 03:13:19;;;;;;;85.32;42.78;;;;;;;;;;5032522;28;19909;-71
2022/09/25 03:15:48;;;;;;;95.25;45.08;;;;;;;;;;5014779;28;20479;-70
2022/09/25 03:18:14;;;;;;;89.03;43.92;;;;;;;;;;5032557;28;20033;-71
2022/09/25 03:20:40;;;;;;;82.32;42.88;;;;;;;;;;5032783;28;20178;-69
2022/09/25 03:23:06;;;;;;;95.50;45.75;;;;;;;;;;5032381;28;20479;-71
2022/09/25 03:25:32;;;;;;;94.80;45.17;;;;;;;;;;5034097;28;20041;-71
2022/09/25 03:27:58;;;;;;;94.55;46.45;;;;;;;;;;5032704;28;20041;-71
2022/09/25 03:30:24;;;;;;;92.18;45.60;;;;;;;;;;5013096;28;20018;-71
2022/09/25 03:32:50;;;;;;;103.43;49.10;;;;;;;;;;5032774;28;20056;-74
2022/09/25 03:35:16;;;;;;;91.60;46.38;;;;;;;;;;5032106;28;20057;-71
2022/09/25 03:37:42;;;;;;;101.70;46.00;;;;;;;;;;5031779;28;20099;-71
2022/09/25 03:40:08;;;;;;;94.40;43.65;;;;;;;;;;5031978;28;20033;-71
2022/09/25 03:42:34;;;;;;;97.93;46.63;;;;;;;;;;5033155;28;20051;-72
2022/09/25 03:45:01;;;;;;;86.03;41.95;;;;;;;;;;5033284;28;20147;-74
2022/09/25 03:47:27;;;;;;;89.93;42.75;;;;;;;;;;5032037;28;20513;-71
2022/09/25 03:49:53;;;;;;;87.68;43.75;;;;;;;;;;5032733;28;20030;-71
2022/09/25 03:52:19;;;;;;;83.65;42.17;;;;;;;;;;5032585;28;20033;-71
2022/09/25 03:54:45;;;;;;;80.50;40.78;;;;;;;;;;5032388;28;20029;-71
2022/09/25 03:57:12;;;;;;;74.88;39.13;;;;;;;;;;5032490;28;20018;-72
2022/09/25 03:59:38;;;;;;;79.07;40.65;;;;;;;;;;5032387;28;20025;-70
2022/09/25 04:02:04;;;;;;;73.28;39.28;;;;;;;;;;5032281;28;20025;-68
2022/09/25 04:04:31;;;;;;;69.38;35.28;;;;;;;;;;5032283;28;20032;-70
2022/09/25 04:06:56;;;;;;;69.35;36.53;;;;;;;;;;5031804;28;20018;-70
2022/09/25 04:09:22;;;;;;;70.00;36.78;;;;;;;;;;5031788;28;20083;-68
2022/09/25 04:11:49;;;;;;;76.28;41.55;;;;;;;;;;5031743;28;20017;-69
2022/09/25 04:14:15;;;;;;;68.40;37.47;;;;;;;;;;5031787;28;20054;-70
2022/09/25 04:16:42;;;;;;;69.75;36.90;;;;;;;;;;5031842;28;20596;-68
2022/09/25 04:19:08;;;;;;;64.78;35.50;;;;;;;;;;5031562;28;20028;-70
2022/09/25 04:21:33;;;;;;;66.20;36.35;;;;;;;;;;5034804;28;20025;-69
2022/09/25 04:26:45;;;;;;;69.50;36.05;;;;;;;;;;5036244;28;20079;-68
2022/09/25 04:29:13;;;;;;;67.55;35.60;;;;;;;;;;5035901;28;20079;-69
2022/09/25 04:31:39;;;;;;;70.38;35.90;;;;;;;;;;5036184;28;20097;-70
2022/09/25 04:34:05;;;;;;;63.15;35.00;;;;;;;;;;5036227;28;20064;-70
2022/09/25 04:36:31;;;;;;;64.97;35.45;;;;;;;;;;5035973;28;20048;-70
2022/09/25 04:38:57;;;;;;;63.08;35.25;;;;;;;;;;5036497;28;20036;-71
2022/09/25 04:41:23;;;;;;;61.72;35.20;;;;;;;;;;5038275;28;20079;-71
2022/09/25 04:43:49;;;;;;;63.00;34.83;;;;;;;;;;5040210;28;20060;-70
2022/09/25 04:46:16;;;;;;;66.30;35.85;;;;;;;;;;5042177;28;20021;-69
2022/09/25 04:48:45;;;;;;;60.97;33.83;;;;;;;;;;5052857;28;20021;-70
2022/09/25 04:51:11;;;;;;;56.38;32.78;;;;;;;;;;5052765;28;20026;-70
2022/09/25 04:53:38;;;;;;;55.33;32.47;;;;;;;;;;5054000;28;20025;-70
2022/09/25 04:56:06;;;;;;;59.47;34.22;;;;;;;;;;5050850;28;20044;-69
2022/09/25 04:58:32;;;;;;;65.07;35.75;;;;;;;;;;5051058;28;20055;-69
2022/09/25 05:01:02;;;;;;;59.58;32.88;;;;;;;;;;5049359;28;20040;-70
2022/09/25 05:03:28;;;;;;;60.28;33.25;;;;;;;;;;5049913;28;20029;-70
2022/09/25 05:05:54;;;;;;;66.43;34.47;;;;;;;;;;5049848;28;20105;-69
2022/09/25 05:08:22;;;;;;;60.25;33.88;;;;;;;;;;5043402;28;20056;-69
2022/09/25 05:10:47;;;;;;;60.58;33.03;;;;;;;;;;5035814;28;20034;-70
2022/09/25 05:13:13;;;;;;;59.58;33.28;;;;;;;;;;5034976;28;20352;-70
2022/09/25 05:15:39;;;;;;;67.30;35.90;;;;;;;;;;5033792;28;20026;-70
2022/09/25 05:18:18;;;;;;;61.17;34.15;;;;;;;;;;5033818;28;20095;-70
2022/09/25 05:20:45;;;;;;;59.53;33.13;;;;;;;;;;5033901;28;20047;-69
2022/09/25 05:23:11;;;;;;;56.13;32.13;;;;;;;;;;5034001;28;20032;-69
2022/09/25 05:25:37;;;;;;;55.67;32.22;;;;;;;;;;5033425;28;20386;-69
2022/09/25 05:28:03;;;;;;;59.30;33.25;;;;;;;;;;5033898;28;20025;-70
2022/09/25 05:30:31;;;;;;;58.67;34.53;;;;;;;;;;5033620;28;20036;-70
2022/09/25 05:32:58;;;;;;;60.42;33.67;;;;;;;;;;5032601;28;20040;-70
2022/09/25 05:35:24;;;;;;;58.78;33.38;;;;;;;;;;5033232;28;20044;-70
2022/09/25 05:37:50;;;;;;;59.72;33.05;;;;;;;;;;5033282;28;20022;-69
2022/09/25 05:40:18;;;;;;;61.55;34.50;;;;;;;;;;5032890;28;20159;-69
2022/09/25 05:42:44;;;;;;;58.70;34.17;;;;;;;;;;5015096;28;20025;-70
2022/09/25 05:45:11;;;;;;;61.72;34.10;;;;;;;;;;5032885;28;20030;-68
2022/09/25 05:47:37;;;;;;;61.63;35.42;;;;;;;;;;5033666;28;20076;-70
2022/09/25 05:50:03;;;;;;;60.45;34.10;;;;;;;;;;5034131;28;20022;-69
2022/09/25 05:52:30;;;;;;;61.13;35.30;;;;;;;;;;5034066;28;20101;-71
2022/09/25 05:54:55;;;;;;;59.17;34.10;;;;;;;;;;5034484;28;20021;-68
2022/09/25 05:57:22;;;;;;;65.10;34.63;;;;;;;;;;5015927;28;20025;-70
2022/09/25 05:59:48;;;;;;;67.53;37.85;;;;;;;;;;5034004;28;20029;-70
2022/09/25 06:02:14;;;;;;;69.28;38.13;;;;;;;;;;5035034;28;20067;-71
2022/09/25 06:04:40;;;;;;;64.05;36.10;;;;;;;;;;5036304;28;20026;-70
2022/09/25 06:07:08;;;;;;;63.20;35.33;;;;;;;;;;5036061;28;20100;-70
2022/09/25 06:09:34;;;;;;;57.90;33.25;;;;;;;;;;5036354;23;20042;-75
2022/09/25 06:12:01;;;;;;;53.70;29.70;;;;;;;;;;5035118;28;20045;-75
2022/09/25 06:14:27;;;;;;;42.65;25.35;;;;;;;;;;5031079;28;20045;-75
2022/09/25 06:16:53;;;;;;;30.50;18.77;;;;;;;;;;5027479;28;20024;-74
2022/09/25 06:19:19;;;;;;;16.98;10.57;;;;;;;;;;5025880;28;20026;-75
2022/09/25 06:21:46;;;;;;;19.17;9.65;;;;;;;;;;5010715;28;20081;-78
2022/09/25 06:24:12;;;;;;;12.68;8.38;;;;;;;;;;5031308;28;20438;-77
2022/09/25 06:26:38;;;;;;;10.65;6.95;;;;;;;;;;5025499;28;20590;-77
2022/09/25 06:29:06;;;;;;;7.75;5.60;;;;;;;;;;5029421;28;20034;-77
2022/09/25 06:31:32;;;;;;;7.13;5.20;;;;;;;;;;5035354;28;20032;-78
2022/09/25 06:33:58;;;;;;;6.15;4.50;;;;;;;;;;5037731;28;20038;-78
2022/09/25 06:36:24;;;;;;;6.13;4.50;;;;;;;;;;5038139;28;20022;-77
2022/09/25 06:38:53;;;;;;;5.03;4.35;;;;;;;;;;5037177;28;20033;-78
2022/09/25 06:41:20;;;;;;;6.15;4.95;;;;;;;;;;5020483;28;20034;-79
2022/09/25 06:43:48;;;;;;;6.53;4.82;;;;;;;;;;5025681;28;20068;-77
2022/09/25 06:46:14;;;;;;;9.95;5.65;;;;;;;;;;5018743;28;20506;-78
2022/09/25 06:48:41;;;;;;;6.70;5.53;;;;;;;;;;5018045;28;20030;-74
2022/09/25 06:51:07;;;;;;;10.07;5.60;;;;;;;;;;5017124;28;20036;-75
2022/09/25 06:53:33;;;;;;;9.60;6.15;;;;;;;;;;5014660;28;20030;-76
2022/09/25 06:56:00;;;;;;;7.40;6.50;;;;;;;;;;5014639;28;20029;-76
2022/09/25 06:58:27;;;;;;;10.45;6.88;;;;;;;;;;5015195;28;20106;-75
2022/09/25 07:00:54;;;;;;;7.65;6.70;;;;;;;;;;5027267;28;20034;-75
2022/09/25 07:06:06;;;;;;;10.48;7.35;;;;;;;;;;5032716;28;20076;-76
2022/09/25 07:08:32;;;;;;;10.05;7.30;;;;;;;;;;5032100;28;20030;-76
2022/09/25 07:10:58;;;;;;;10.13;8.32;;;;;;;;;;5030195;28;20032;-76
2022/09/25 07:13:26;;;;;;;10.13;7.85;;;;;;;;;;5017982;28;20026;-75
2022/09/25 07:15:56;;;;;;;9.20;7.85;;;;;;;;;;5025747;28;20022;-75
2022/09/25 07:18:23;;;;;;;10.38;8.75;;;;;;;;;;5008222;28;20037;-75
2022/09/25 07:20:49;;;;;;;10.32;8.10;;;;;;;;;;5006025;28;20094;-76
2022/09/25 07:23:16;;;;;;;10.50;8.60;;;;;;;;;;5001941;28;20030;-75
2022/09/25 07:25:42;;;;;;;12.32;9.02;;;;;;;;;;5017410;28;20087;-76
2022/09/25 07:28:08;;;;;;;10.77;8.05;;;;;;;;;;5004062;28;20026;-77
2022/09/25 07:30:34;;;;;;;10.00;7.88;;;;;;;;;;5021504;28;20091;-75
2022/09/25 07:33:01;;;;;;;11.52;8.60;;;;;;;;;;5020061;28;20493;-74
2022/09/25 07:35:27;;;;;;;9.07;7.60;;;;;;;;;;5017215;28;20438;-76
2022/09/25 07:37:56;;;;;;;11.18;8.38;;;;;;;;;;5015486;28;20022;-77
2022/09/25 07:40:22;;;;;;;9.85;7.60;;;;;;;;;;5015466;28;20479;-76
2022/09/25 07:42:48;;;;;;;9.18;7.47;;;;;;;;;;5019665;28;20033;-76
2022/09/25 07:45:14;;;;;;;9.75;7.95;;;;;;;;;;5024366;28;20034;-76
2022/09/25 07:47:40;;;;;;;10.85;7.45;;;;;;;;;;5018223;28;20390;-76
2022/09/25 07:50:06;;;;;;;10.18;8.00;;;;;;;;;;5014339;28;20037;-76
2022/09/25 07:52:32;;;;;;;10.25;7.90;;;;;;;;;;4995513;28;20021;-75
2022/09/25 07:54:58;;;;;;;9.18;7.43;;;;;;;;;;5013412;28;20097;-76
2022/09/25 07:57:24;;;;;;;10.80;8.18;;;;;;;;;;5017531;28;20026;-76
2022/09/25 07:59:50;;;;;;;13.38;9.52;;;;;;;;;;4996578;28;20117;-75
2022/09/25 08:02:16;;;;;;;12.85;9.20;;;;;;;;;;5014386;28;20049;-76
2022/09/25 08:04:42;;;;;;;10.95;8.45;;;;;;;;;;5013929;28;20026;-76
2022/09/25 08:07:08;;;;;;;12.75;9.65;;;;;;;;;;5013476;28;20018;-75
2022/09/25 08:09:34;;;;;;;11.82;9.02;;;;;;;;;;5013445;28;20453;-76
2022/09/25 08:12:01;;;;;;;15.40;10.93;;;;;;;;;;5013037;28;20050;-76
2022/09/25 08:14:27;;;;;;;14.05;11.00;;;;;;;;;;5012009;28;20105;-76
2022/09/25 08:16:54;;;;;;;14.18;10.02;;;;;;;;;;5011768;28;20034;-76
2022/09/25 08:19:22;;;;;;;12.77;10.38;;;;;;;;;;5013116;28;20126;-76
2022/09/25 08:21:48;;;;;;;11.90;9.23;;;;;;;;;;5020562;28;20022;-74
2022/09/25 08:24:14;;;;;;;11.02;8.73;;;;;;;;;;5029254;28;20034;-74
2022/09/25 08:26:40;;;;;;;10.30;7.78;;;;;;;;;;5023197;28;20036;-75
2022/09/25 08:29:08;;;;;;;12.80;9.27;;;;;;;;;;5025796;28;20080;-74
2022/09/25 08:31:34;;;;;;;11.63;8.52;;;;;;;;;;5032900;28;20018;-76
2022/09/25 08:34:00;;;;;;;14.02;10.25;;;;;;;;;;5018915;28;20032;-78
2022/09/25 08:36:25;;;;;;;12.77;9.05;;;;;;;;;;5013979;28;20449;-75
2022/09/25 08:38:57;;;;;;;13.48;9.93;;;;;;;;;;5012148;28;20561;-74
2022/09/25 08:41:25;;;;;;;11.93;8.82;;;;;;;;;;5012740;28;20387;-75
2022/09/25 08:44:15;;;;;;;12.68;8.73;;;;;;;;;;5013013;28;20032;-76
2022/09/25 08:49:36;;;;;;;13.38;9.48;;;;;;;;;;5012427;28;20045;-77
2022/09/25 08:52:03;;;;;;;14.85;9.52;;;;;;;;;;4998155;28;20028;-75
2022/09/25 08:54:31;;;;;;;12.90;9.38;;;;;;;;;;5018975;28;20018;-77
2022/09/25 08:57:15;;;;;;;16.10;9.55;;;;;;;;;;5000847;28;20479;-74
2022/09/25 08:59:43;;;;;;;15.07;9.48;;;;;;;;;;5015651;28;20057;-76
2022/09/25 09:02:20;;;;;;;14.90;9.40;;;;;;;;;;5017085;28;20097;-71
2022/09/25 09:04:50;;;;;;;11.93;8.80;;;;;;;;;;5035953;28;20125;-76
2022/09/25 09:07:36;;;;;;;14.38;8.88;;;;;;;;;;5037844;28;20021;-73
2022/09/25 09:10:02;;;;;;;15.82;9.48;;;;;;;;;;5030880;28;20050;-76
2022/09/25 09:12:33;;;;;;;13.82;9.63;;;;;;;;;;5016083;28;20080;-75
2022/09/25 09:15:06;;;;;;;15.63;8.85;;;;;;;;;;4997931;28;20502;-74
2022/09/25 09:17:37;;;;;;;14.43;9.20;;;;;;;;;;4997989;28;20033;-75
2022/09/25 09:20:13;;;;;;;16.08;9.07;;;;;;;;;;4998224;28;20152;-75
2022/09/25 09:22:41;;;;;;;17.10;9.63;;;;;;;;;;5015636;28;20437;-74
2022/09/25 09:25:28;;;;;;;13.95;8.80;;;;;;;;;;5015301;28;20030;-75
2022/09/25 09:28:06;;;;;;;16.52;9.73;;;;;;;;;;5015258;28;20390;-76
2022/09/25 09:30:36;;;;;;;21.00;10.30;;;;;;;;;;5015829;28;20463;-75
2022/09/25 09:33:05;;;;;;;23.85;9.57;;;;;;;;;;5016346;28;20372;-78
2022/09/25 09:35:42;;;;;;;22.20;10.55;;;;;;;;;;4999868;28;20029;-75
2022/09/25 09:38:14;;;;;;;16.17;9.73;;;;;;;;;;5022382;28;20052;-76
2022/09/25 09:41:11;;;;;;;18.83;9.50;;;;;;;;;;5007274;28;20502;-77
2022/09/25 09:43:41;;;;;;;17.40;9.48;;;;;;;;;;4946835;28;20114;-76
2022/09/25 09:46:12;;;;;;;16.85;9.07;;;;;;;;;;4998961;28;20022;-76
2022/09/25 09:48:57;;;;;;;18.88;10.48;;;;;;;;;;5016468;28;20079;-75
2022/09/25 09:51:44;;;;;;;18.77;9.50;;;;;;;;;;5016594;28;20019;-76
2022/09/25 09:54:34;;;;;;;21.90;10.20;;;;;;;;;;4999034;28;20034;-76
2022/09/25 09:57:00;;;;;;;24.25;9.88;;;;;;;;;;5016021;28;20479;-76
2022/09/25 09:59:38;;;;;;;16.30;8.85;;;;;;;;;;5015549;28;20550;-76
2022/09/25 10:02:20;;;;;;;17.50;8.90;;;;;;;;;;4997679;28;20157;-75
2022/09/25 10:04:46;;;;;;;17.50;8.93;;;;;;;;;;5015489;28;20364;-76
2022/09/25 10:07:17;;;;;;;21.33;9.32;;;;;;;;;;5014738;28;20406;-75
2022/09/25 10:09:43;;;;;;;16.05;8.57;;;;;;;;;;5015323;28;20652;-75
2022/09/25 10:12:14;;;;;;;20.25;11.60;;;;;;;;;;5015701;28;20084;-78
2022/09/25 10:14:42;;;;;;;19.48;10.10;;;;;;;;;;5015371;28;20026;-74
2022/09/25 10:17:12;;;;;;;19.58;10.27;;;;;;;;;;5015018;28;20036;-75
2022/09/25 10:19:44;;;;;;;24.88;10.50;;;;;;;;;;4995657;28;20048;-75
2022/09/25 10:22:19;;;;;;;18.05;9.15;;;;;;;;;;4998075;28;20423;-77
2022/09/25 10:24:50;;;;;;;18.85;8.95;;;;;;;;;;5014575;28;20032;-75
2022/09/25 10:27:27;;;;;;;18.52;9.75;;;;;;;;;;5011354;28;20053;-75
2022/09/25 10:30:02;;;;;;;18.80;8.52;;;;;;;;;;5014098;28;20018;-75
2022/09/25 10:32:29;;;;;;;15.50;9.07;;;;;;;;;;5014006;28;20014;-75
2022/09/25 10:34:55;;;;;;;19.65;8.50;;;;;;;;;;5015634;28;20057;-75
2022/09/25 10:37:22;;;;;;;15.38;8.23;;;;;;;;;;5014727;28;20022;-75
2022/09/25 10:40:01;;;;;;;15.50;9.15;;;;;;;;;;5014368;28;20021;-76
2022/09/25 10:42:31;;;;;;;17.23;8.43;;;;;;;;;;5025556;28;20002;-76
2022/09/25 10:44:57;;;;;;;17.73;9.15;;;;;;;;;;5021514;28;20034;-74
2022/09/25 10:50:18;;;;;;;28.05;9.07;;;;;;;;;;5017551;28;20033;-75
2022/09/25 10:53:02;;;;;;;18.42;9.23;;;;;;;;;;5017872;28;20050;-76
2022/09/25 10:55:33;;;;;;;14.32;7.93;;;;;;;;;;5015217;28;20018;-74
2022/09/25 10:58:04;;;;;;;21.63;10.05;;;;;;;;;;5018255;28;20021;-76
2022/09/25 11:00:33;;;;;;;16.20;9.82;;;;;;;;;;5019690;28;20033;-75
2022/09/25 11:03:04;;;;;;;18.20;9.02;;;;;;;;;;5016855;28;20022;-76
2022/09/25 11:05:32;;;;;;;17.13;9.20;;;;;;;;;;5013956;28;20057;-75
2022/09/25 11:08:00;;;;;;;15.38;9.32;;;;;;;;;;5016279;28;20037;-73
2022/09/25 11:10:30;;;;;;;18.27;8.13;;;;;;;;;;5015096;28;20025;-75
2022/09/25 11:12:57;;;;;;;15.95;8.05;;;;;;;;;;5017117;28;20022;-74
2022/09/25 11:15:25;;;;;;;35.60;20.67;;;;;;;;;;5016203;28;20426;-76
2022/09/25 11:17:53;;;;;;;31.70;21.58;;;;;;;;;;5014784;28;20113;-76
2022/09/25 11:20:28;;;;;;;18.95;9.98;;;;;;;;;;5015046;28;20088;-74
2022/09/25 11:23:06;;;;;;;19.02;9.70;;;;;;;;;;5016811;28;20092;-77
2022/09/25 11:25:52;;;;;;;26.00;11.25;;;;;;;;;;5031591;28;20040;-76
2022/09/25 11:28:27;;;;;;;19.92;8.93;;;;;;;;;;5029079;28;20034;-76
2022/09/25 11:30:57;;;;;;;20.08;8.75;;;;;;;;;;5031217;28;20041;-75
2022/09/25 11:33:40;;;;;;;19.15;8.45;;;;;;;;;;5034755;28;20013;-78
2022/09/25 11:36:10;;;;;;;18.42;7.93;;;;;;;;;;5026467;28;20029;-73
2022/09/25 11:41:32;;;;;;;18.63;8.13;;;;;;;;;;5012894;28;20076;-76
2022/09/25 11:44:14;;;;;;;14.05;7.45;;;;;;;;;;5012637;28;20033;-76
2022/09/25 11:46:55;;;;;;;14.75;7.65;;;;;;;;;;4994071;28;20069;-75
2022/09/25 11:49:23;;;;;;;13.73;6.50;;;;;;;;;;4993645;28;20057;-75
2022/09/25 11:51:54;;;;;;;14.27;7.30;;;;;;;;;;4995556;28;20046;-76
2022/09/25 11:54:29;;;;;;;15.25;7.50;;;;;;;;;;4994956;28;20037;-75
2022/09/25 11:57:13;;;;;;;13.60;7.38;;;;;;;;;;4998234;28;20022;-76
2022/09/25 11:59:49;;;;;;;14.07;6.63;;;;;;;;;;4997532;28;20057;-75
2022/09/25 12:02:21;;;;;;;12.43;7.28;;;;;;;;;;5015931;28;20034;-73
2022/09/25 12:04:54;;;;;;;15.63;8.18;;;;;;;;;;5017695;28;20030;-75
2022/09/25 12:07:23;;;;;;;18.65;7.57;;;;;;;;;;5014734;28;20017;-75
2022/09/25 12:10:03;;;;;;;14.70;7.10;;;;;;;;;;5036185;23;20052;-77
2022/09/25 12:12:44;;;;;;;16.45;8.13;;;;;;;;;;5014851;28;20466;-81
2022/09/25 12:15:13;;;;;;;14.60;7.68;;;;;;;;;;5020572;28;20084;-75
2022/09/25 12:17:39;;;;;;;19.20;8.02;;;;;;;;;;5000675;28;20022;-76
2022/09/25 12:20:24;;;;;;;12.73;6.80;;;;;;;;;;5003142;28;20033;-80
2022/09/25 12:23:01;;;;;;;11.85;7.20;;;;;;;;;;5035238;28;20021;-76
2022/09/25 12:25:48;;;;;;;16.30;7.57;;;;;;;;;;5035467;28;20022;-77
2022/09/25 12:28:29;;;;;;;13.27;6.63;;;;;;;;;;4987542;28;20112;-79
2022/09/25 12:30:58;;;;;;;12.45;6.03;;;;;;;;;;5014239;28;20074;-77
2022/09/25 12:33:34;;;;;;;10.60;5.25;;;;;;;;;;5012984;28;20455;-75
2022/09/25 12:36:09;;;;;;;11.43;5.90;;;;;;;;;;5012398;28;20113;-74
2022/09/25 12:38:35;;;;;;;11.45;4.93;;;;;;;;;;5012429;28;20029;-75
2022/09/25 12:41:07;;;;;;;11.48;4.30;;;;;;;;;;5013158;28;20018;-75
2022/09/25 12:43:34;;;;;;;13.52;5.40;;;;;;;;;;5016714;28;20379;-75
2022/09/25 12:46:05;;;;;;;11.80;4.65;;;;;;;;;;5016926;28;20026;-77
2022/09/25 12:48:36;;;;;;;11.85;4.05;;;;;;;;;;5016362;28;20030;-75
2022/09/25 12:51:24;;;;;;;14.95;4.30;;;;;;;;;;4999903;28;20033;-75
2022/09/25 12:54:13;;;;;;;12.18;5.35;;;;;;;;;;5018515;28;20030;-74
2022/09/25 12:56:40;;;;;;;10.98;4.72;;;;;;;;;;5006135;28;20088;-75
2022/09/25 12:59:12;;;;;;;11.25;3.55;;;;;;;;;;5016735;28;20026;-74
2022/09/25 13:01:52;;;;;;;13.32;3.13;;;;;;;;;;5016556;28;20029;-75
2022/09/25 13:04:23;;;;;;;8.48;2.50;;;;;;;;;;4999319;28;20026;-76
2022/09/25 13:06:59;;;;;;;15.73;3.58;;;;;;;;;;5017443;28;20476;-75
2022/09/25 13:09:30;;;;;;;15.18;4.68;;;;;;;;;;5018425;28;20026;-75
2022/09/25 13:12:09;;;;;;;12.40;3.88;;;;;;;;;;4999910;28;20143;-75
2022/09/25 13:14:38;;;;;;;8.93;3.30;;;;;;;;;;5020741;28;20024;-75
2022/09/25 13:17:06;;;;;;;10.32;3.13;;;;;;;;;;5021264;28;20495;-75
2022/09/25 13:19:33;;;;;;;9.88;3.00;;;;;;;;;;5019942;28;20036;-75
2022/09/25 13:22:14;;;;;;;10.13;3.13;;;;;;;;;;5017606;28;20080;-77
2022/09/25 13:24:50;;;;;;;13.07;3.05;;;;;;;;;;5023780;28;20022;-74
2022/09/25 13:27:21;;;;;;;11.75;3.78;;;;;;;;;;5019182;28;20208;-76
2022/09/25 13:29:52;;;;;;;8.73;2.63;;;;;;;;;;5015706;28;20044;-76
2022/09/25 13:32:18;;;;;;;13.02;3.65;;;;;;;;;;4997692;28;20045;-76
2022/09/25 13:34:45;;;;;;;18.27;5.20;;;;;;;;;;5014916;28;20364;-76
2022/09/25 13:37:12;;;;;;;14.98;3.42;;;;;;;;;;5014866;28;20112;-76
2022/09/25 13:42:25;;;;;;;9.55;2.83;;;;;;;;;;5017824;28;20053;-75
2022/09/25 13:44:56;;;;;;;15.48;3.30;;;;;;;;;;5015663;28;20519;-74
2022/09/25 13:47:26;;;;;;;11.15;2.80;;;;;;;;;;5014863;28;20021;-74
2022/09/25 13:50:04;;;;;;;11.98;3.10;;;;;;;;;;5015289;28;20021;-82
2022/09/25 13:52:36;;;;;;;12.25;3.42;;;;;;;;;;5012920;28;20022;-74
2022/09/25 13:55:19;;;;;;;12.00;2.95;;;;;;;;;;5019218;28;20026;-75
2022/09/25 13:58:06;;;;;;;10.55;3.15;;;;;;;;;;5014479;28;20025;-75
2022/09/25 14:00:38;;;;;;;17.02;3.42;;;;;;;;;;5014756;28;20524;-77
2022/09/25 14:03:04;;;;;;;10.65;3.03;;;;;;;;;;5015155;28;20042;-76
2022/09/25 14:05:34;;;;;;;14.25;3.83;;;;;;;;;;5016396;28;20073;-76
2022/09/25 14:08:11;;;;;;;16.75;4.45;;;;;;;;;;5014867;28;20025;-76
2022/09/25 14:10:43;;;;;;;10.93;3.33;;;;;;;;;;5015459;28;20187;-75
2022/09/25 14:13:12;;;;;;;13.40;3.60;;;;;;;;;;5015322;28;20090;-77
2022/09/25 14:15:39;;;;;;;14.73;3.97;;;;;;;;;;5014406;28;20044;-77
2022/09/25 14:18:07;;;;;;;18.33;3.42;;;;;;;;;;5015262;28;20026;-77
2022/09/25 14:20:41;;;;;;;19.90;4.22;;;;;;;;;;5020761;28;20021;-75
2022/09/25 14:23:26;;;;;;;15.30;3.75;;;;;;;;;;5027288;28;20037;-73
2022/09/25 14:25:52;;;;;;;;;;;;;;;;;;5026252;28;20028;-75
2022/09/25 14:28:20;;;;;;;11.20;2.85;;;;;;;;;;5014653;28;19925;-76
2022/09/25 14:30:51;;;;;;;17.58;2.67;;;;;;;;;;5019510;28;20101;-77
2022/09/25 14:33:17;;;;;;;9.57;2.40;;;;;;;;;;5016683;28;20386;-76
2022/09/25 14:35:50;;;;;;;7.50;2.30;;;;;;;;;;5014603;28;20104;-76
2022/09/25 14:38:22;;;;;;;9.68;2.78;;;;;;;;;;5017308;28;20515;-75
2022/09/25 14:41:04;;;;;;;9.50;2.60;;;;;;;;;;5000525;28;20026;-76
2022/09/25 14:43:40;;;;;;;11.30;2.90;;;;;;;;;;5001499;28;20037;-76
2022/09/25 14:46:17;;;;;;;8.63;2.13;;;;;;;;;;5015270;28;20033;-76
2022/09/25 14:48:48;;;;;;;12.95;2.53;;;;;;;;;;5014284;28;20440;-76
2022/09/25 14:51:19;;;;;;;11.73;3.08;;;;;;;;;;5013495;28;20387;-76
2022/09/25 14:53:47;;;;;;;7.53;2.00;;;;;;;;;;5014428;28;20029;-76
2022/09/25 14:56:14;;;;;;;7.93;2.63;;;;;;;;;;5013421;28;20029;-75
2022/09/25 14:58:45;;;;;;;10.68;2.10;;;;;;;;;;5013921;28;20071;-75
2022/09/25 15:01:25;;;;;;;10.15;2.30;;;;;;;;;;5014448;28;20483;-75
2022/09/25 15:03:52;;;;;;;4.90;1.70;;;;;;;;;;5017612;28;20498;-76
2022/09/25 15:06:31;;;;;;;8.00;2.05;;;;;;;;;;5013375;28;20518;-75
2022/09/25 15:09:00;;;;;;;19.08;3.65;;;;;;;;;;5014468;28;20084;-76